sensor_id;sensor_type;location;lat;lon;timestamp;temperature;humidity
69747;DHT22;57018;50.278;19.134;2023-08-12T00:00:14;14.50;99.90
69747;DHT22;57018;50.278;19.134;2023-08-12T00:02:45;14.60;99.90
69747;DHT22;57018;50.278;19.134;2023-08-12T00:05:15;14.50;99.90
69747;DHT22;57018;50.278;19.134;2023-08-12T00:07:45;14.50;99.90
69747;DHT22;57018;50.278;19.134;2023-08-12T00:10:15;14.50;99.90
69747;DHT22;57018;50.278;19.134;2023-08-12T00:12:45;14.40;99.90
69747;DHT22;57018;50.278;19.134;2023-08-12T00:15:15;14.40;99.90
69747;DHT22;57018;50.278;19.134;2023-08-12T00:17:45;14.40;99.90
69747;DHT22;57018;50.278;19.134;2023-08-12T00:20:15;14.30;99.90
69747;DHT22;57018;50.278;19.134;2023-08-12T00:22:46;14.20;99.90
69747;DHT22;57018;50.278;19.134;2023-08-12T00:25:16;14.30;99.90
69747;DHT22;57018;50.278;19.134;2023-08-12T00:27:46;14.30;99.90
69747;DHT22;57018;50.278;19.134;2023-08-12T00:30:16;14.20;99.90
69747;DHT22;57018;50.278;19.134;2023-08-12T00:32:46;14.20;99.90
69747;DHT22;57018;50.278;19.134;2023-08-12T00:35:16;14.30;99.90
69747;DHT22;57018;50.278;19.134;2023-08-12T00:37:46;14.20;99.90
69747;DHT22;57018;50.278;19.134;2023-08-12T00:40:16;14.20;99.90
69747;DHT22;57018;50.278;19.134;2023-08-12T00:42:46;14.20;99.90
69747;DHT22;57018;50.278;19.134;2023-08-12T00:45:16;14.10;99.90
69747;DHT22;57018;50.278;19.134;2023-08-12T00:47:46;14.10;99.90
69747;DHT22;57018;50.278;19.134;2023-08-12T00:50:16;14.10;99.90
69747;DHT22;57018;50.278;19.134;2023-08-12T00:52:46;14.10;99.90
69747;DHT22;57018;50.278;19.134;2023-08-12T00:55:16;14.00;99.90
69747;DHT22;57018;50.278;19.134;2023-08-12T00:57:46;14.10;99.90
69747;DHT22;57018;50.278;19.134;2023-08-12T01:00:17;13.90;99.90
69747;DHT22;57018;50.278;19.134;2023-08-12T01:02:50;13.90;99.90
69747;DHT22;57018;50.278;19.134;2023-08-12T01:05:21;13.90;99.90
69747;DHT22;57018;50.278;19.134;2023-08-12T01:07:51;14.00;99.90
69747;DHT22;57018;50.278;19.134;2023-08-12T01:10:22;13.90;99.90
69747;DHT22;57018;50.278;19.134;2023-08-12T01:12:58;13.90;99.90
69747;DHT22;57018;50.278;19.134;2023-08-12T01:15:29;13.90;99.90
69747;DHT22;57018;50.278;19.134;2023-08-12T01:18:01;13.90;99.90
69747;DHT22;57018;50.278;19.134;2023-08-12T01:20:31;13.90;99.90
69747;DHT22;57018;50.278;19.134;2023-08-12T01:23:11;13.70;99.90
69747;DHT22;57018;50.278;19.134;2023-08-12T01:25:42;13.80;99.90
69747;DHT22;57018;50.278;19.134;2023-08-12T01:28:12;13.70;99.90
69747;DHT22;57018;50.278;19.134;2023-08-12T01:30:51;13.70;99.90
69747;DHT22;57018;50.278;19.134;2023-08-12T01:33:30;13.70;99.90
69747;DHT22;57018;50.278;19.134;2023-08-12T01:36:09;13.60;99.90
69747;DHT22;57018;50.278;19.134;2023-08-12T01:38:40;13.60;99.90
69747;DHT22;57018;50.278;19.134;2023-08-12T01:41:11;13.60;99.90
69747;DHT22;57018;50.278;19.134;2023-08-12T01:43:42;13.60;99.90
69747;DHT22;57018;50.278;19.134;2023-08-12T01:46:13;13.50;99.90
69747;DHT22;57018;50.278;19.134;2023-08-12T01:48:42;13.40;99.90
69747;DHT22;57018;50.278;19.134;2023-08-12T01:51:12;13.50;99.90
69747;DHT22;57018;50.278;19.134;2023-08-12T01:53:43;13.40;99.90
69747;DHT22;57018;50.278;19.134;2023-08-12T01:56:12;13.50;99.90
69747;DHT22;57018;50.278;19.134;2023-08-12T01:58:42;13.40;99.90
69747;DHT22;57018;50.278;19.134;2023-08-12T02:01:12;13.30;99.90
69747;DHT22;57018;50.278;19.134;2023-08-12T02:03:42;13.40;99.90
69747;DHT22;57018;50.278;19.134;2023-08-12T02:06:12;13.30;99.90
69747;DHT22;57018;50.278;19.134;2023-08-12T02:08:40;13.40;99.90
69747;DHT22;57018;50.278;19.134;2023-08-12T02:11:10;13.30;99.90
69747;DHT22;57018;50.278;19.134;2023-08-12T02:13:39;13.40;99.90
69747;DHT22;57018;50.278;19.134;2023-08-12T02:16:09;13.40;99.90
69747;DHT22;57018;50.278;19.134;2023-08-12T02:18:39;13.30;99.90
69747;DHT22;57018;50.278;19.134;2023-08-12T02:21:09;13.10;99.90
69747;DHT22;57018;50.278;19.134;2023-08-12T02:23:39;13.20;99.90
69747;DHT22;57018;50.278;19.134;2023-08-12T02:26:08;13.30;99.90
69747;DHT22;57018;50.278;19.134;2023-08-12T02:28:38;13.20;99.90
69747;DHT22;57018;50.278;19.134;2023-08-12T02:31:08;13.20;99.90
69747;DHT22;57018;50.278;19.134;2023-08-12T02:33:38;13.20;99.90
69747;DHT22;57018;50.278;19.134;2023-08-12T02:36:08;13.20;99.90
69747;DHT22;57018;50.278;19.134;2023-08-12T02:38:38;13.10;99.90
69747;DHT22;57018;50.278;19.134;2023-08-12T02:41:08;13.30;99.90
69747;DHT22;57018;50.278;19.134;2023-08-12T02:43:38;13.20;99.90
69747;DHT22;57018;50.278;19.134;2023-08-12T02:46:07;13.20;99.90
69747;DHT22;57018;50.278;19.134;2023-08-12T02:48:38;13.10;99.90
69747;DHT22;57018;50.278;19.134;2023-08-12T02:51:07;13.10;99.90
69747;DHT22;57018;50.278;19.134;2023-08-12T02:53:38;13.00;99.90
69747;DHT22;57018;50.278;19.134;2023-08-12T02:56:08;12.90;99.90
69747;DHT22;57018;50.278;19.134;2023-08-12T02:58:38;13.00;99.90
69747;DHT22;57018;50.278;19.134;2023-08-12T03:01:08;12.90;99.90
69747;DHT22;57018;50.278;19.134;2023-08-12T03:03:38;12.90;99.90
69747;DHT22;57018;50.278;19.134;2023-08-12T03:06:08;12.90;99.90
69747;DHT22;57018;50.278;19.134;2023-08-12T03:08:38;12.80;99.90
69747;DHT22;57018;50.278;19.134;2023-08-12T03:11:08;12.90;99.90
69747;DHT22;57018;50.278;19.134;2023-08-12T03:13:38;12.90;99.90
69747;DHT22;57018;50.278;19.134;2023-08-12T03:16:12;12.90;99.90
69747;DHT22;57018;50.278;19.134;2023-08-12T03:18:42;12.80;99.90
69747;DHT22;57018;50.278;19.134;2023-08-12T03:21:12;12.80;99.90
69747;DHT22;57018;50.278;19.134;2023-08-12T03:23:40;12.90;99.90
69747;DHT22;57018;50.278;19.134;2023-08-12T03:26:10;12.90;99.90
69747;DHT22;57018;50.278;19.134;2023-08-12T03:28:40;12.90;99.90
69747;DHT22;57018;50.278;19.134;2023-08-12T03:31:10;12.90;99.90
69747;DHT22;57018;50.278;19.134;2023-08-12T03:33:40;13.00;99.90
69747;DHT22;57018;50.278;19.134;2023-08-12T03:36:10;13.00;99.90
69747;DHT22;57018;50.278;19.134;2023-08-12T03:38:40;13.00;99.90
69747;DHT22;57018;50.278;19.134;2023-08-12T03:41:10;13.00;99.90
69747;DHT22;57018;50.278;19.134;2023-08-12T03:43:40;13.10;99.90
69747;DHT22;57018;50.278;19.134;2023-08-12T03:46:10;13.20;99.90
69747;DHT22;57018;50.278;19.134;2023-08-12T03:48:39;13.30;99.90
69747;DHT22;57018;50.278;19.134;2023-08-12T03:51:10;13.20;99.90
69747;DHT22;57018;50.278;19.134;2023-08-12T03:53:40;13.50;99.90
69747;DHT22;57018;50.278;19.134;2023-08-12T03:56:08;13.60;99.90
69747;DHT22;57018;50.278;19.134;2023-08-12T03:58:38;13.70;99.90
69747;DHT22;57018;50.278;19.134;2023-08-12T04:01:07;14.00;99.90
69747;DHT22;57018;50.278;19.134;2023-08-12T04:03:37;14.20;99.90
69747;DHT22;57018;50.278;19.134;2023-08-12T04:06:07;14.40;99.90
69747;DHT22;57018;50.278;19.134;2023-08-12T04:08:37;14.80;99.90
69747;DHT22;57018;50.278;19.134;2023-08-12T04:11:07;14.90;99.90
69747;DHT22;57018;50.278;19.134;2023-08-12T04:13:36;15.20;99.90
69747;DHT22;57018;50.278;19.134;2023-08-12T04:16:06;15.50;99.90
69747;DHT22;57018;50.278;19.134;2023-08-12T04:18:36;15.60;99.90
69747;DHT22;57018;50.278;19.134;2023-08-12T04:21:06;15.80;99.90
69747;DHT22;57018;50.278;19.134;2023-08-12T04:23:36;16.00;99.90
69747;DHT22;57018;50.278;19.134;2023-08-12T04:26:06;16.30;99.90
69747;DHT22;57018;50.278;19.134;2023-08-12T04:28:35;16.40;99.90
69747;DHT22;57018;50.278;19.134;2023-08-12T04:31:07;16.70;99.90
69747;DHT22;57018;50.278;19.134;2023-08-12T04:33:37;16.80;99.90
69747;DHT22;57018;50.278;19.134;2023-08-12T04:36:08;17.00;99.90
69747;DHT22;57018;50.278;19.134;2023-08-12T04:38:37;17.30;99.90
69747;DHT22;57018;50.278;19.134;2023-08-12T04:41:07;17.40;99.90
69747;DHT22;57018;50.278;19.134;2023-08-12T04:43:37;17.60;99.90
69747;DHT22;57018;50.278;19.134;2023-08-12T04:46:07;17.70;99.90
69747;DHT22;57018;50.278;19.134;2023-08-12T04:48:37;17.90;99.90
69747;DHT22;57018;50.278;19.134;2023-08-12T04:51:07;18.10;99.90
69747;DHT22;57018;50.278;19.134;2023-08-12T04:53:37;18.20;99.90
69747;DHT22;57018;50.278;19.134;2023-08-12T04:56:07;18.30;99.90
69747;DHT22;57018;50.278;19.134;2023-08-12T04:58:37;18.50;99.90
69747;DHT22;57018;50.278;19.134;2023-08-12T05:01:09;18.70;99.90
69747;DHT22;57018;50.278;19.134;2023-08-12T05:03:38;18.80;99.90
69747;DHT22;57018;50.278;19.134;2023-08-12T05:06:09;19.00;99.90
69747;DHT22;57018;50.278;19.134;2023-08-12T05:08:38;19.10;99.90
69747;DHT22;57018;50.278;19.134;2023-08-12T05:11:08;19.30;99.90
69747;DHT22;57018;50.278;19.134;2023-08-12T05:13:38;19.40;99.90
69747;DHT22;57018;50.278;19.134;2023-08-12T05:16:09;19.60;99.90
69747;DHT22;57018;50.278;19.134;2023-08-12T05:18:39;19.80;99.90
69747;DHT22;57018;50.278;19.134;2023-08-12T05:21:09;19.90;99.90
69747;DHT22;57018;50.278;19.134;2023-08-12T05:23:39;20.10;99.90
69747;DHT22;57018;50.278;19.134;2023-08-12T05:26:08;20.20;99.90
69747;DHT22;57018;50.278;19.134;2023-08-12T05:28:40;20.30;99.90
69747;DHT22;57018;50.278;19.134;2023-08-12T05:31:10;20.60;99.90
69747;DHT22;57018;50.278;19.134;2023-08-12T05:33:40;20.70;99.90
69747;DHT22;57018;50.278;19.134;2023-08-12T05:36:10;20.90;99.90
69747;DHT22;57018;50.278;19.134;2023-08-12T05:38:39;21.00;99.90
69747;DHT22;57018;50.278;19.134;2023-08-12T05:41:11;21.20;99.90
69747;DHT22;57018;50.278;19.134;2023-08-12T05:43:41;21.50;99.90
69747;DHT22;57018;50.278;19.134;2023-08-12T05:46:18;21.60;99.40
69747;DHT22;57018;50.278;19.134;2023-08-12T05:48:48;21.80;97.70
69747;DHT22;57018;50.278;19.134;2023-08-12T05:51:18;21.90;97.60
69747;DHT22;57018;50.278;19.134;2023-08-12T05:53:49;22.00;97.60
69747;DHT22;57018;50.278;19.134;2023-08-12T05:56:19;22.00;97.40
69747;DHT22;57018;50.278;19.134;2023-08-12T05:58:49;22.20;95.80
69747;DHT22;57018;50.278;19.134;2023-08-12T06:01:19;22.30;95.70
69747;DHT22;57018;50.278;19.134;2023-08-12T06:03:49;22.30;95.60
69747;DHT22;57018;50.278;19.134;2023-08-12T06:06:19;22.30;94.70
69747;DHT22;57018;50.278;19.134;2023-08-12T06:08:53;22.30;95.30
69747;DHT22;57018;50.278;19.134;2023-08-12T06:11:23;22.30;94.20
69747;DHT22;57018;50.278;19.134;2023-08-12T06:13:53;22.30;94.50
69747;DHT22;57018;50.278;19.134;2023-08-12T06:16:22;22.30;94.30
69747;DHT22;57018;50.278;19.134;2023-08-12T06:18:52;22.20;94.20
69747;DHT22;57018;50.278;19.134;2023-08-12T06:21:22;22.20;94.30
69747;DHT22;57018;50.278;19.134;2023-08-12T06:23:52;22.10;95.00
69747;DHT22;57018;50.278;19.134;2023-08-12T06:26:22;22.10;95.30
69747;DHT22;57018;50.278;19.134;2023-08-12T06:28:52;22.00;94.70
69747;DHT22;57018;50.278;19.134;2023-08-12T06:31:21;22.00;95.00
69747;DHT22;57018;50.278;19.134;2023-08-12T06:33:51;21.90;95.40
69747;DHT22;57018;50.278;19.134;2023-08-12T06:36:21;21.90;95.60
69747;DHT22;57018;50.278;19.134;2023-08-12T06:38:51;21.90;96.00
69747;DHT22;57018;50.278;19.134;2023-08-12T06:41:21;21.80;97.00
69747;DHT22;57018;50.278;19.134;2023-08-12T06:43:51;21.90;96.60
69747;DHT22;57018;50.278;19.134;2023-08-12T06:46:20;21.90;96.50
69747;DHT22;57018;50.278;19.134;2023-08-12T06:48:50;22.00;96.80
69747;DHT22;57018;50.278;19.134;2023-08-12T06:51:26;22.00;95.90
69747;DHT22;57018;50.278;19.134;2023-08-12T06:53:56;22.00;95.70
69747;DHT22;57018;50.278;19.134;2023-08-12T06:56:26;22.10;96.30
69747;DHT22;57018;50.278;19.134;2023-08-12T06:58:56;22.20;96.30
69747;DHT22;57018;50.278;19.134;2023-08-12T07:01:26;22.30;96.90
69747;DHT22;57018;50.278;19.134;2023-08-12T07:04:00;22.30;96.10
69747;DHT22;57018;50.278;19.134;2023-08-12T07:06:30;22.40;95.70
69747;DHT22;57018;50.278;19.134;2023-08-12T07:09:07;22.40;96.30
69747;DHT22;57018;50.278;19.134;2023-08-12T07:11:42;22.40;97.00
69747;DHT22;57018;50.278;19.134;2023-08-12T07:14:12;22.40;96.00
69747;DHT22;57018;50.278;19.134;2023-08-12T07:16:42;22.40;96.20
69747;DHT22;57018;50.278;19.134;2023-08-12T07:19:13;22.40;95.70
69747;DHT22;57018;50.278;19.134;2023-08-12T07:21:43;22.40;94.20
69747;DHT22;57018;50.278;19.134;2023-08-12T07:24:13;22.40;95.00
69747;DHT22;57018;50.278;19.134;2023-08-12T07:26:43;22.40;94.30
69747;DHT22;57018;50.278;19.134;2023-08-12T07:29:13;22.40;93.30
69747;DHT22;57018;50.278;19.134;2023-08-12T07:31:43;22.40;94.10
69747;DHT22;57018;50.278;19.134;2023-08-12T07:34:13;22.40;95.00
69747;DHT22;57018;50.278;19.134;2023-08-12T07:36:43;22.40;94.70
69747;DHT22;57018;50.278;19.134;2023-08-12T07:39:13;22.50;94.80
69747;DHT22;57018;50.278;19.134;2023-08-12T07:41:46;22.40;95.40
69747;DHT22;57018;50.278;19.134;2023-08-12T07:44:16;22.30;95.70
69747;DHT22;57018;50.278;19.134;2023-08-12T07:46:46;22.30;95.50
69747;DHT22;57018;50.278;19.134;2023-08-12T07:49:17;22.30;95.60
69747;DHT22;57018;50.278;19.134;2023-08-12T07:51:47;22.40;95.40
69747;DHT22;57018;50.278;19.134;2023-08-12T07:54:16;22.40;93.20
69747;DHT22;57018;50.278;19.134;2023-08-12T07:56:46;22.40;91.80
69747;DHT22;57018;50.278;19.134;2023-08-12T07:59:16;22.40;89.50
69747;DHT22;57018;50.278;19.134;2023-08-12T08:01:46;22.40;89.20
69747;DHT22;57018;50.278;19.134;2023-08-12T08:04:16;22.50;90.00
69747;DHT22;57018;50.278;19.134;2023-08-12T08:06:46;22.50;90.20
69747;DHT22;57018;50.278;19.134;2023-08-12T08:09:15;22.60;88.60
69747;DHT22;57018;50.278;19.134;2023-08-12T08:11:45;22.60;86.60
69747;DHT22;57018;50.278;19.134;2023-08-12T08:14:15;22.70;87.50
69747;DHT22;57018;50.278;19.134;2023-08-12T08:16:45;22.70;88.00
69747;DHT22;57018;50.278;19.134;2023-08-12T08:19:15;22.80;87.60
69747;DHT22;57018;50.278;19.134;2023-08-12T08:21:44;22.80;86.00
69747;DHT22;57018;50.278;19.134;2023-08-12T08:24:14;22.90;86.20
69747;DHT22;57018;50.278;19.134;2023-08-12T08:26:44;22.90;85.20
69747;DHT22;57018;50.278;19.134;2023-08-12T08:29:15;23.00;84.60
69747;DHT22;57018;50.278;19.134;2023-08-12T08:31:45;23.10;83.40
69747;DHT22;57018;50.278;19.134;2023-08-12T08:34:17;23.30;84.10
69747;DHT22;57018;50.278;19.134;2023-08-12T08:36:47;23.30;81.90
69747;DHT22;57018;50.278;19.134;2023-08-12T08:39:17;23.40;81.70
69747;DHT22;57018;50.278;19.134;2023-08-12T08:41:49;23.50;80.00
69747;DHT22;57018;50.278;19.134;2023-08-12T08:44:22;23.50;78.80
69747;DHT22;57018;50.278;19.134;2023-08-12T08:46:53;23.60;76.90
69747;DHT22;57018;50.278;19.134;2023-08-12T08:49:24;23.70;75.90
69747;DHT22;57018;50.278;19.134;2023-08-12T08:51:55;23.60;74.70
69747;DHT22;57018;50.278;19.134;2023-08-12T08:54:26;23.70;74.30
69747;DHT22;57018;50.278;19.134;2023-08-12T08:56:56;23.80;72.90
69747;DHT22;57018;50.278;19.134;2023-08-12T08:59:26;23.80;73.60
69747;DHT22;57018;50.278;19.134;2023-08-12T09:01:56;24.00;73.10
69747;DHT22;57018;50.278;19.134;2023-08-12T09:04:27;24.00;71.80
69747;DHT22;57018;50.278;19.134;2023-08-12T09:06:59;24.10;68.00
69747;DHT22;57018;50.278;19.134;2023-08-12T09:09:30;24.10;68.90
69747;DHT22;57018;50.278;19.134;2023-08-12T09:12:00;24.10;70.40
69747;DHT22;57018;50.278;19.134;2023-08-12T09:14:31;24.20;68.80
69747;DHT22;57018;50.278;19.134;2023-08-12T09:17:02;24.20;68.30
69747;DHT22;57018;50.278;19.134;2023-08-12T09:19:32;24.30;68.30
69747;DHT22;57018;50.278;19.134;2023-08-12T09:22:04;24.30;66.20
69747;DHT22;57018;50.278;19.134;2023-08-12T09:24:34;24.20;68.00
69747;DHT22;57018;50.278;19.134;2023-08-12T09:27:05;24.30;67.70
69747;DHT22;57018;50.278;19.134;2023-08-12T09:29:36;24.40;69.30
69747;DHT22;57018;50.278;19.134;2023-08-12T09:32:11;24.40;68.90
69747;DHT22;57018;50.278;19.134;2023-08-12T09:34:46;24.50;65.50
69747;DHT22;57018;50.278;19.134;2023-08-12T09:37:14;24.50;65.50
69747;DHT22;57018;50.278;19.134;2023-08-12T09:39:44;24.50;63.70
69747;DHT22;57018;50.278;19.134;2023-08-12T09:42:14;24.50;61.40
69747;DHT22;57018;50.278;19.134;2023-08-12T09:44:44;24.60;61.20
69747;DHT22;57018;50.278;19.134;2023-08-12T09:47:14;24.50;60.20
69747;DHT22;57018;50.278;19.134;2023-08-12T09:49:44;24.50;60.80
69747;DHT22;57018;50.278;19.134;2023-08-12T09:52:14;24.60;62.70
69747;DHT22;57018;50.278;19.134;2023-08-12T09:54:45;24.70;63.50
69747;DHT22;57018;50.278;19.134;2023-08-12T09:57:17;24.70;61.40
69747;DHT22;57018;50.278;19.134;2023-08-12T09:59:48;24.90;61.80
69747;DHT22;57018;50.278;19.134;2023-08-12T10:02:19;24.90;62.00
69747;DHT22;57018;50.278;19.134;2023-08-12T10:04:53;24.90;61.50
69747;DHT22;57018;50.278;19.134;2023-08-12T10:07:25;24.90;60.50
69747;DHT22;57018;50.278;19.134;2023-08-12T10:09:55;25.10;61.00
69747;DHT22;57018;50.278;19.134;2023-08-12T10:12:26;25.10;61.40
69747;DHT22;57018;50.278;19.134;2023-08-12T10:14:57;25.10;62.30
69747;DHT22;57018;50.278;19.134;2023-08-12T10:17:28;25.20;63.50
69747;DHT22;57018;50.278;19.134;2023-08-12T10:20:00;25.30;62.00
69747;DHT22;57018;50.278;19.134;2023-08-12T10:22:32;25.30;60.00
69747;DHT22;57018;50.278;19.134;2023-08-12T10:25:03;25.40;58.70
69747;DHT22;57018;50.278;19.134;2023-08-12T10:27:33;25.40;59.70
69747;DHT22;57018;50.278;19.134;2023-08-12T10:30:06;25.30;57.60
69747;DHT22;57018;50.278;19.134;2023-08-12T10:32:38;25.30;56.70
69747;DHT22;57018;50.278;19.134;2023-08-12T10:35:10;25.30;56.60
69747;DHT22;57018;50.278;19.134;2023-08-12T10:37:41;25.40;58.10
69747;DHT22;57018;50.278;19.134;2023-08-12T10:40:22;25.40;58.40
69747;DHT22;57018;50.278;19.134;2023-08-12T10:42:52;25.40;57.20
69747;DHT22;57018;50.278;19.134;2023-08-12T10:45:22;25.50;57.80
69747;DHT22;57018;50.278;19.134;2023-08-12T10:50:45;25.60;57.90
69747;DHT22;57018;50.278;19.134;2023-08-12T10:53:28;25.60;58.30
69747;DHT22;57018;50.278;19.134;2023-08-12T10:56:01;25.70;57.50
69747;DHT22;57018;50.278;19.134;2023-08-12T10:58:44;25.70;56.50
69747;DHT22;57018;50.278;19.134;2023-08-12T11:01:18;25.80;57.10
69747;DHT22;57018;50.278;19.134;2023-08-12T11:03:49;25.80;57.20
69747;DHT22;57018;50.278;19.134;2023-08-12T11:06:20;25.80;57.00
69747;DHT22;57018;50.278;19.134;2023-08-12T11:08:53;25.80;56.90
69747;DHT22;57018;50.278;19.134;2023-08-12T11:11:23;25.90;55.80
69747;DHT22;57018;50.278;19.134;2023-08-12T11:13:56;25.90;56.40
69747;DHT22;57018;50.278;19.134;2023-08-12T11:16:36;25.90;54.70
69747;DHT22;57018;50.278;19.134;2023-08-12T11:19:09;25.80;53.40
69747;DHT22;57018;50.278;19.134;2023-08-12T11:21:39;25.90;53.90
69747;DHT22;57018;50.278;19.134;2023-08-12T11:24:10;25.90;53.70
69747;DHT22;57018;50.278;19.134;2023-08-12T11:26:40;26.00;54.60
69747;DHT22;57018;50.278;19.134;2023-08-12T11:29:12;26.00;55.60
69747;DHT22;57018;50.278;19.134;2023-08-12T11:31:43;26.10;56.40
69747;DHT22;57018;50.278;19.134;2023-08-12T11:34:13;26.10;55.80
69747;DHT22;57018;50.278;19.134;2023-08-12T11:36:43;26.20;55.00
69747;DHT22;57018;50.278;19.134;2023-08-12T11:39:13;26.10;55.10
69747;DHT22;57018;50.278;19.134;2023-08-12T11:41:43;26.20;53.80
69747;DHT22;57018;50.278;19.134;2023-08-12T11:44:16;26.20;53.30
69747;DHT22;57018;50.278;19.134;2023-08-12T11:46:46;26.20;54.30
69747;DHT22;57018;50.278;19.134;2023-08-12T11:49:17;26.20;55.00
69747;DHT22;57018;50.278;19.134;2023-08-12T11:51:49;26.30;53.80
69747;DHT22;57018;50.278;19.134;2023-08-12T11:54:19;26.30;53.80
69747;DHT22;57018;50.278;19.134;2023-08-12T11:56:49;26.30;54.70
69747;DHT22;57018;50.278;19.134;2023-08-12T11:59:22;26.30;55.00
69747;DHT22;57018;50.278;19.134;2023-08-12T12:01:54;26.40;54.20
69747;DHT22;57018;50.278;19.134;2023-08-12T12:04:24;26.40;53.70
69747;DHT22;57018;50.278;19.134;2023-08-12T12:06:53;26.50;54.10
69747;DHT22;57018;50.278;19.134;2023-08-12T12:09:23;26.50;53.10
69747;DHT22;57018;50.278;19.134;2023-08-12T12:11:54;26.60;53.60
69747;DHT22;57018;50.278;19.134;2023-08-12T12:14:26;26.60;52.70
69747;DHT22;57018;50.278;19.134;2023-08-12T12:16:56;26.50;52.90
69747;DHT22;57018;50.278;19.134;2023-08-12T12:19:25;26.60;52.40
69747;DHT22;57018;50.278;19.134;2023-08-12T12:21:56;26.60;52.30
69747;DHT22;57018;50.278;19.134;2023-08-12T12:24:30;26.70;51.10
69747;DHT22;57018;50.278;19.134;2023-08-12T12:27:00;26.60;53.20
69747;DHT22;57018;50.278;19.134;2023-08-12T12:29:29;26.70;53.30
69747;DHT22;57018;50.278;19.134;2023-08-12T12:31:59;26.60;53.50
69747;DHT22;57018;50.278;19.134;2023-08-12T12:34:29;26.70;53.90
69747;DHT22;57018;50.278;19.134;2023-08-12T12:36:59;26.60;53.70
69747;DHT22;57018;50.278;19.134;2023-08-12T12:39:29;26.70;53.80
69747;DHT22;57018;50.278;19.134;2023-08-12T12:41:59;26.60;53.60
69747;DHT22;57018;50.278;19.134;2023-08-12T12:44:30;26.70;53.70
69747;DHT22;57018;50.278;19.134;2023-08-12T12:47:00;26.80;53.30
69747;DHT22;57018;50.278;19.134;2023-08-12T12:49:30;26.80;53.50
69747;DHT22;57018;50.278;19.134;2023-08-12T12:52:00;26.90;53.30
69747;DHT22;57018;50.278;19.134;2023-08-12T12:54:30;26.90;53.70
69747;DHT22;57018;50.278;19.134;2023-08-12T12:57:00;26.90;53.40
69747;DHT22;57018;50.278;19.134;2023-08-12T12:59:32;27.00;53.00
69747;DHT22;57018;50.278;19.134;2023-08-12T13:02:02;27.00;52.90
69747;DHT22;57018;50.278;19.134;2023-08-12T13:04:32;27.00;51.60
69747;DHT22;57018;50.278;19.134;2023-08-12T13:07:02;27.00;51.20
69747;DHT22;57018;50.278;19.134;2023-08-12T13:09:31;27.10;51.50
69747;DHT22;57018;50.278;19.134;2023-08-12T13:12:01;27.10;52.20
69747;DHT22;57018;50.278;19.134;2023-08-12T13:14:31;27.10;51.90
69747;DHT22;57018;50.278;19.134;2023-08-12T13:17:01;27.10;51.70
69747;DHT22;57018;50.278;19.134;2023-08-12T13:19:31;27.10;52.10
69747;DHT22;57018;50.278;19.134;2023-08-12T13:22:01;27.20;52.40
69747;DHT22;57018;50.278;19.134;2023-08-12T13:24:31;27.20;52.50
69747;DHT22;57018;50.278;19.134;2023-08-12T13:27:01;27.20;52.30
69747;DHT22;57018;50.278;19.134;2023-08-12T13:29:31;27.10;52.00
69747;DHT22;57018;50.278;19.134;2023-08-12T13:32:01;27.10;52.30
69747;DHT22;57018;50.278;19.134;2023-08-12T13:34:30;27.10;52.90
69747;DHT22;57018;50.278;19.134;2023-08-12T13:37:00;27.10;53.00
69747;DHT22;57018;50.278;19.134;2023-08-12T13:39:30;27.10;53.20
69747;DHT22;57018;50.278;19.134;2023-08-12T13:42:00;27.20;53.10
69747;DHT22;57018;50.278;19.134;2023-08-12T13:44:30;27.10;52.70
69747;DHT22;57018;50.278;19.134;2023-08-12T13:47:00;27.20;53.10
69747;DHT22;57018;50.278;19.134;2023-08-12T13:49:29;27.20;52.90
69747;DHT22;57018;50.278;19.134;2023-08-12T13:51:59;27.20;53.00
69747;DHT22;57018;50.278;19.134;2023-08-12T13:54:29;27.10;51.90
69747;DHT22;57018;50.278;19.134;2023-08-12T13:57:00;27.20;52.30
69747;DHT22;57018;50.278;19.134;2023-08-12T13:59:30;27.30;52.30
69747;DHT22;57018;50.278;19.134;2023-08-12T14:02:00;27.20;52.50
69747;DHT22;57018;50.278;19.134;2023-08-12T14:04:30;27.20;52.50
69747;DHT22;57018;50.278;19.134;2023-08-12T14:07:00;27.20;52.50
69747;DHT22;57018;50.278;19.134;2023-08-12T14:09:30;27.10;53.10
69747;DHT22;57018;50.278;19.134;2023-08-12T14:12:00;27.20;53.00
69747;DHT22;57018;50.278;19.134;2023-08-12T14:14:31;27.10;53.30
69747;DHT22;57018;50.278;19.134;2023-08-12T14:17:00;27.20;52.30
69747;DHT22;57018;50.278;19.134;2023-08-12T14:19:30;27.10;52.30
69747;DHT22;57018;50.278;19.134;2023-08-12T14:22:00;27.20;52.90
69747;DHT22;57018;50.278;19.134;2023-08-12T14:24:30;27.20;53.00
69747;DHT22;57018;50.278;19.134;2023-08-12T14:27:00;27.20;53.20
69747;DHT22;57018;50.278;19.134;2023-08-12T14:29:30;27.10;53.90
69747;DHT22;57018;50.278;19.134;2023-08-12T14:32:00;27.20;53.00
69747;DHT22;57018;50.278;19.134;2023-08-12T14:34:30;27.10;53.10
69747;DHT22;57018;50.278;19.134;2023-08-12T14:37:01;27.10;53.10
69747;DHT22;57018;50.278;19.134;2023-08-12T14:39:31;27.10;53.70
69747;DHT22;57018;50.278;19.134;2023-08-12T14:42:01;27.10;53.30
69747;DHT22;57018;50.278;19.134;2023-08-12T14:44:32;27.00;53.40
69747;DHT22;57018;50.278;19.134;2023-08-12T14:47:03;27.00;53.90
69747;DHT22;57018;50.278;19.134;2023-08-12T14:49:33;27.00;53.20
69747;DHT22;57018;50.278;19.134;2023-08-12T14:52:03;27.00;53.30
69747;DHT22;57018;50.278;19.134;2023-08-12T14:54:33;27.00;53.60
69747;DHT22;57018;50.278;19.134;2023-08-12T14:57:03;27.00;54.20
69747;DHT22;57018;50.278;19.134;2023-08-12T14:59:33;27.00;54.10
69747;DHT22;57018;50.278;19.134;2023-08-12T15:02:03;26.90;54.40
69747;DHT22;57018;50.278;19.134;2023-08-12T15:04:33;26.90;54.60
69747;DHT22;57018;50.278;19.134;2023-08-12T15:07:03;26.90;53.50
69747;DHT22;57018;50.278;19.134;2023-08-12T15:09:33;26.90;54.00
69747;DHT22;57018;50.278;19.134;2023-08-12T15:12:03;26.80;54.20
69747;DHT22;57018;50.278;19.134;2023-08-12T15:14:32;26.80;53.90
69747;DHT22;57018;50.278;19.134;2023-08-12T15:17:02;26.80;54.30
69747;DHT22;57018;50.278;19.134;2023-08-12T15:19:32;26.80;54.40
69747;DHT22;57018;50.278;19.134;2023-08-12T15:22:02;26.80;54.50
69747;DHT22;57018;50.278;19.134;2023-08-12T15:24:32;26.80;54.50
69747;DHT22;57018;50.278;19.134;2023-08-12T15:27:02;26.70;54.70
69747;DHT22;57018;50.278;19.134;2023-08-12T15:29:31;26.70;54.40
69747;DHT22;57018;50.278;19.134;2023-08-12T15:32:02;26.70;54.40
69747;DHT22;57018;50.278;19.134;2023-08-12T15:34:32;26.60;52.70
69747;DHT22;57018;50.278;19.134;2023-08-12T15:37:05;26.60;53.90